sensor_id;sensor_type;location;lat;lon;timestamp;P1;durP1;ratioP1;P2;durP2;ratioP2
3698;SDS011;1865;50.918;7.092;2022-08-19T00:00:29;26.90;;;19.53;;
3698;SDS011;1865;50.918;7.092;2022-08-19T00:02:55;27.50;;;18.90;;
3698;SDS011;1865;50.918;7.092;2022-08-19T00:05:21;23.40;;;17.10;;
3698;SDS011;1865;50.918;7.092;2022-08-19T00:07:48;24.23;;;18.00;;
3698;SDS011;1865;50.918;7.092;2022-08-19T00:10:15;23.57;;;17.70;;
3698;SDS011;1865;50.918;7.092;2022-08-19T00:12:41;24.20;;;17.33;;
3698;SDS011;1865;50.918;7.092;2022-08-19T00:15:11;25.67;;;18.47;;
3698;SDS011;1865;50.918;7.092;2022-08-19T00:17:40;24.93;;;19.23;;
3698;SDS011;1865;50.918;7.092;2022-08-19T00:20:08;24.93;;;18.57;;
3698;SDS011;1865;50.918;7.092;2022-08-19T00:22:35;25.00;;;20.00;;
3698;SDS011;1865;50.918;7.092;2022-08-19T00:25:03;24.90;;;18.27;;
3698;SDS011;1865;50.918;7.092;2022-08-19T00:27:29;25.37;;;17.73;;
3698;SDS011;1865;50.918;7.092;2022-08-19T00:29:55;28.10;;;18.70;;
3698;SDS011;1865;50.918;7.092;2022-08-19T00:32:21;25.70;;;18.53;;
3698;SDS011;1865;50.918;7.092;2022-08-19T00:34:47;23.67;;;18.30;;
3698;SDS011;1865;50.918;7.092;2022-08-19T00:37:12;26.27;;;17.70;;
3698;SDS011;1865;50.918;7.092;2022-08-19T00:39:38;25.10;;;18.20;;
3698;SDS011;1865;50.918;7.092;2022-08-19T00:42:04;24.10;;;17.77;;
3698;SDS011;1865;50.918;7.092;2022-08-19T00:44:31;27.23;;;19.27;;
3698;SDS011;1865;50.918;7.092;2022-08-19T00:46:57;27.87;;;19.27;;
3698;SDS011;1865;50.918;7.092;2022-08-19T00:52:03;23.43;;;17.90;;
3698;SDS011;1865;50.918;7.092;2022-08-19T00:54:37;22.90;;;17.50;;
3698;SDS011;1865;50.918;7.092;2022-08-19T00:57:05;23.47;;;18.10;;
3698;SDS011;1865;50.918;7.092;2022-08-19T00:59:33;25.73;;;18.13;;
3698;SDS011;1865;50.918;7.092;2022-08-19T01:02:01;24.10;;;18.40;;
3698;SDS011;1865;50.918;7.092;2022-08-19T01:04:26;24.53;;;18.73;;
3698;SDS011;1865;50.918;7.092;2022-08-19T01:06:52;23.20;;;17.50;;
3698;SDS011;1865;50.918;7.092;2022-08-19T01:09:18;24.60;;;18.10;;
3698;SDS011;1865;50.918;7.092;2022-08-19T01:11:44;27.60;;;18.00;;
3698;SDS011;1865;50.918;7.092;2022-08-19T01:14:11;30.10;;;19.93;;
3698;SDS011;1865;50.918;7.092;2022-08-19T01:16:37;26.63;;;18.20;;
3698;SDS011;1865;50.918;7.092;2022-08-19T01:19:09;24.77;;;17.57;;
3698;SDS011;1865;50.918;7.092;2022-08-19T01:21:47;27.53;;;18.97;;
3698;SDS011;1865;50.918;7.092;2022-08-19T01:24:20;26.47;;;18.70;;
3698;SDS011;1865;50.918;7.092;2022-08-19T01:26:46;27.77;;;19.07;;
3698;SDS011;1865;50.918;7.092;2022-08-19T01:29:16;24.03;;;19.27;;
3698;SDS011;1865;50.918;7.092;2022-08-19T01:31:42;27.47;;;18.63;;
3698;SDS011;1865;50.918;7.092;2022-08-19T01:34:09;26.60;;;18.03;;
3698;SDS011;1865;50.918;7.092;2022-08-19T01:36:39;25.10;;;19.20;;
3698;SDS011;1865;50.918;7.092;2022-08-19T01:39:12;26.50;;;17.90;;
3698;SDS011;1865;50.918;7.092;2022-08-19T01:41:41;25.33;;;18.03;;
3698;SDS011;1865;50.918;7.092;2022-08-19T01:44:07;29.30;;;19.57;;
3698;SDS011;1865;50.918;7.092;2022-08-19T01:46:34;29.33;;;19.90;;
3698;SDS011;1865;50.918;7.092;2022-08-19T01:49:01;24.20;;;18.27;;
3698;SDS011;1865;50.918;7.092;2022-08-19T01:51:29;26.60;;;20.03;;
3698;SDS011;1865;50.918;7.092;2022-08-19T01:53:55;26.27;;;19.70;;
3698;SDS011;1865;50.918;7.092;2022-08-19T01:56:22;29.13;;;19.50;;
3698;SDS011;1865;50.918;7.092;2022-08-19T01:58:51;26.43;;;19.50;;
3698;SDS011;1865;50.918;7.092;2022-08-19T02:01:22;24.87;;;17.90;;
3698;SDS011;1865;50.918;7.092;2022-08-19T02:03:48;26.50;;;19.33;;
3698;SDS011;1865;50.918;7.092;2022-08-19T02:06:13;28.73;;;20.47;;
3698;SDS011;1865;50.918;7.092;2022-08-19T02:08:41;27.13;;;18.47;;
3698;SDS011;1865;50.918;7.092;2022-08-19T02:11:07;24.50;;;19.00;;
3698;SDS011;1865;50.918;7.092;2022-08-19T02:13:33;25.50;;;18.80;;
3698;SDS011;1865;50.918;7.092;2022-08-19T02:15:59;25.00;;;17.60;;
3698;SDS011;1865;50.918;7.092;2022-08-19T02:18:24;26.90;;;18.07;;
3698;SDS011;1865;50.918;7.092;2022-08-19T02:20:51;24.33;;;18.80;;
3698;SDS011;1865;50.918;7.092;2022-08-19T02:23:18;27.27;;;19.07;;
3698;SDS011;1865;50.918;7.092;2022-08-19T02:25:45;32.20;;;19.57;;
3698;SDS011;1865;50.918;7.092;2022-08-19T02:28:12;25.43;;;19.10;;
3698;SDS011;1865;50.918;7.092;2022-08-19T02:30:40;25.73;;;19.33;;
3698;SDS011;1865;50.918;7.092;2022-08-19T02:33:07;26.93;;;19.13;;
3698;SDS011;1865;50.918;7.092;2022-08-19T02:35:33;23.90;;;18.60;;
3698;SDS011;1865;50.918;7.092;2022-08-19T02:37:58;27.23;;;20.33;;
3698;SDS011;1865;50.918;7.092;2022-08-19T02:40:54;27.17;;;19.77;;
3698;SDS011;1865;50.918;7.092;2022-08-19T02:43:32;26.17;;;19.97;;
3698;SDS011;1865;50.918;7.092;2022-08-19T02:46:02;25.83;;;18.73;;
3698;SDS011;1865;50.918;7.092;2022-08-19T02:48:36;27.87;;;19.40;;
3698;SDS011;1865;50.918;7.092;2022-08-19T02:51:02;24.60;;;18.83;;
3698;SDS011;1865;50.918;7.092;2022-08-19T02:53:27;25.20;;;19.30;;
3698;SDS011;1865;50.918;7.092;2022-08-19T02:55:54;26.20;;;20.37;;
3698;SDS011;1865;50.918;7.092;2022-08-19T02:58:24;29.83;;;22.77;;
3698;SDS011;1865;50.918;7.092;2022-08-19T03:00:52;31.13;;;21.40;;
3698;SDS011;1865;50.918;7.092;2022-08-19T03:03:20;25.70;;;18.30;;
3698;SDS011;1865;50.918;7.092;2022-08-19T03:05:47;25.63;;;19.73;;
3698;SDS011;1865;50.918;7.092;2022-08-19T03:08:13;27.73;;;19.90;;
3698;SDS011;1865;50.918;7.092;2022-08-19T03:10:39;24.63;;;19.07;;
3698;SDS011;1865;50.918;7.092;2022-08-19T03:13:14;27.90;;;19.07;;
3698;SDS011;1865;50.918;7.092;2022-08-19T03:15:42;25.40;;;17.97;;
3698;SDS011;1865;50.918;7.092;2022-08-19T03:18:09;26.60;;;18.03;;
3698;SDS011;1865;50.918;7.092;2022-08-19T03:20:39;28.23;;;20.17;;
3698;SDS011;1865;50.918;7.092;2022-08-19T03:23:06;28.93;;;19.50;;
3698;SDS011;1865;50.918;7.092;2022-08-19T03:25:36;30.27;;;20.00;;
3698;SDS011;1865;50.918;7.092;2022-08-19T03:28:03;25.10;;;19.83;;
3698;SDS011;1865;50.918;7.092;2022-08-19T03:30:29;24.63;;;18.97;;
3698;SDS011;1865;50.918;7.092;2022-08-19T03:32:55;28.10;;;18.30;;
3698;SDS011;1865;50.918;7.092;2022-08-19T03:35:20;27.10;;;19.40;;
3698;SDS011;1865;50.918;7.092;2022-08-19T03:37:45;23.07;;;18.43;;
3698;SDS011;1865;50.918;7.092;2022-08-19T03:40:11;26.87;;;19.37;;
3698;SDS011;1865;50.918;7.092;2022-08-19T03:42:36;27.33;;;19.63;;
3698;SDS011;1865;50.918;7.092;2022-08-19T03:45:07;23.80;;;18.67;;
3698;SDS011;1865;50.918;7.092;2022-08-19T03:47:35;27.27;;;19.47;;
3698;SDS011;1865;50.918;7.092;2022-08-19T03:50:02;26.57;;;20.40;;
3698;SDS011;1865;50.918;7.092;2022-08-19T03:52:29;26.50;;;20.27;;
3698;SDS011;1865;50.918;7.092;2022-08-19T03:54:55;28.60;;;19.67;;
3698;SDS011;1865;50.918;7.092;2022-08-19T03:57:25;24.70;;;18.90;;
3698;SDS011;1865;50.918;7.092;2022-08-19T03:59:51;26.53;;;20.30;;
3698;SDS011;1865;50.918;7.092;2022-08-19T04:02:17;27.83;;;19.90;;
3698;SDS011;1865;50.918;7.092;2022-08-19T04:04:44;28.63;;;20.73;;
3698;SDS011;1865;50.918;7.092;2022-08-19T04:07:11;25.63;;;19.33;;
3698;SDS011;1865;50.918;7.092;2022-08-19T04:09:40;29.00;;;20.70;;
3698;SDS011;1865;50.918;7.092;2022-08-19T04:12:06;27.87;;;20.10;;
3698;SDS011;1865;50.918;7.092;2022-08-19T04:14:33;26.10;;;19.83;;
3698;SDS011;1865;50.918;7.092;2022-08-19T04:17:00;27.00;;;18.87;;
3698;SDS011;1865;50.918;7.092;2022-08-19T04:19:29;27.30;;;20.83;;
3698;SDS011;1865;50.918;7.092;2022-08-19T04:21:55;32.90;;;20.83;;
3698;SDS011;1865;50.918;7.092;2022-08-19T04:24:21;25.60;;;19.93;;
3698;SDS011;1865;50.918;7.092;2022-08-19T04:26:47;23.70;;;18.33;;
3698;SDS011;1865;50.918;7.092;2022-08-19T04:29:15;27.23;;;20.13;;
3698;SDS011;1865;50.918;7.092;2022-08-19T04:31:44;30.43;;;20.77;;
3698;SDS011;1865;50.918;7.092;2022-08-19T04:34:12;26.13;;;18.90;;
3698;SDS011;1865;50.918;7.092;2022-08-19T04:36:39;27.87;;;19.83;;
3698;SDS011;1865;50.918;7.092;2022-08-19T04:39:16;27.40;;;20.40;;
3698;SDS011;1865;50.918;7.092;2022-08-19T04:41:44;29.83;;;21.50;;
3698;SDS011;1865;50.918;7.092;2022-08-19T04:44:29;31.97;;;21.90;;
3698;SDS011;1865;50.918;7.092;2022-08-19T04:46:59;27.30;;;20.13;;
3698;SDS011;1865;50.918;7.092;2022-08-19T04:49:25;30.03;;;20.53;;
3698;SDS011;1865;50.918;7.092;2022-08-19T04:51:51;28.77;;;20.87;;
3698;SDS011;1865;50.918;7.092;2022-08-19T04:54:23;25.23;;;19.90;;
3698;SDS011;1865;50.918;7.092;2022-08-19T04:56:50;29.30;;;20.77;;
3698;SDS011;1865;50.918;7.092;2022-08-19T04:59:17;27.00;;;21.30;;
3698;SDS011;1865;50.918;7.092;2022-08-19T05:01:45;30.73;;;20.70;;
3698;SDS011;1865;50.918;7.092;2022-08-19T05:04:14;28.30;;;20.10;;
3698;SDS011;1865;50.918;7.092;2022-08-19T05:06:44;26.10;;;18.10;;
3698;SDS011;1865;50.918;7.092;2022-08-19T05:09:10;25.53;;;18.97;;
3698;SDS011;1865;50.918;7.092;2022-08-19T05:11:36;32.00;;;18.50;;
3698;SDS011;1865;50.918;7.092;2022-08-19T05:14:04;24.13;;;17.67;;
3698;SDS011;1865;50.918;7.092;2022-08-19T05:16:30;26.03;;;17.10;;
3698;SDS011;1865;50.918;7.092;2022-08-19T05:18:55;26.10;;;18.40;;
3698;SDS011;1865;50.918;7.092;2022-08-19T05:21:40;27.07;;;18.70;;
3698;SDS011;1865;50.918;7.092;2022-08-19T05:24:26;26.40;;;19.13;;
3698;SDS011;1865;50.918;7.092;2022-08-19T05:26:53;24.70;;;19.67;;
3698;SDS011;1865;50.918;7.092;2022-08-19T05:29:21;25.90;;;18.30;;
3698;SDS011;1865;50.918;7.092;2022-08-19T05:31:49;28.43;;;19.87;;
3698;SDS011;1865;50.918;7.092;2022-08-19T05:34:15;28.43;;;21.17;;
3698;SDS011;1865;50.918;7.092;2022-08-19T05:36:43;29.17;;;21.50;;
3698;SDS011;1865;50.918;7.092;2022-08-19T05:39:10;28.10;;;20.43;;
3698;SDS011;1865;50.918;7.092;2022-08-19T05:41:44;25.60;;;19.83;;
3698;SDS011;1865;50.918;7.092;2022-08-19T05:44:11;28.10;;;20.67;;
3698;SDS011;1865;50.918;7.092;2022-08-19T05:46:39;30.87;;;21.73;;
3698;SDS011;1865;50.918;7.092;2022-08-19T05:49:05;27.07;;;20.37;;
3698;SDS011;1865;50.918;7.092;2022-08-19T05:51:34;31.50;;;22.23;;
3698;SDS011;1865;50.918;7.092;2022-08-19T05:54:02;31.40;;;22.20;;
3698;SDS011;1865;50.918;7.092;2022-08-19T05:56:29;30.70;;;21.40;;
3698;SDS011;1865;50.918;7.092;2022-08-19T05:58:58;28.27;;;21.33;;
3698;SDS011;1865;50.918;7.092;2022-08-19T06:01:24;32.03;;;22.07;;
3698;SDS011;1865;50.918;7.092;2022-08-19T06:03:50;32.17;;;22.57;;
3698;SDS011;1865;50.918;7.092;2022-08-19T06:06:16;31.73;;;21.53;;
3698;SDS011;1865;50.918;7.092;2022-08-19T06:08:45;31.20;;;21.37;;
3698;SDS011;1865;50.918;7.092;2022-08-19T06:14:06;33.03;;;22.87;;
3698;SDS011;1865;50.918;7.092;2022-08-19T06:16:38;41.07;;;20.40;;
3698;SDS011;1865;50.918;7.092;2022-08-19T06:19:07;27.53;;;20.40;;
3698;SDS011;1865;50.918;7.092;2022-08-19T06:21:35;32.10;;;22.40;;
3698;SDS011;1865;50.918;7.092;2022-08-19T06:24:02;27.70;;;18.60;;
3698;SDS011;1865;50.918;7.092;2022-08-19T06:26:33;30.63;;;18.90;;
3698;SDS011;1865;50.918;7.092;2022-08-19T06:29:00;27.63;;;19.90;;
3698;SDS011;1865;50.918;7.092;2022-08-19T06:31:27;27.03;;;19.40;;
3698;SDS011;1865;50.918;7.092;2022-08-19T06:33:56;24.93;;;18.63;;
3698;SDS011;1865;50.918;7.092;2022-08-19T06:36:26;32.80;;;20.13;;
3698;SDS011;1865;50.918;7.092;2022-08-19T06:38:56;31.70;;;19.80;;
3698;SDS011;1865;50.918;7.092;2022-08-19T06:41:26;28.57;;;20.17;;
3698;SDS011;1865;50.918;7.092;2022-08-19T06:43:54;30.23;;;20.40;;
3698;SDS011;1865;50.918;7.092;2022-08-19T06:46:20;29.53;;;22.33;;
3698;SDS011;1865;50.918;7.092;2022-08-19T06:48:47;40.23;;;24.73;;
3698;SDS011;1865;50.918;7.092;2022-08-19T06:51:14;38.80;;;25.17;;
3698;SDS011;1865;50.918;7.092;2022-08-19T06:53:43;33.67;;;23.67;;
3698;SDS011;1865;50.918;7.092;2022-08-19T06:56:11;41.00;;;25.67;;
3698;SDS011;1865;50.918;7.092;2022-08-19T06:58:38;34.10;;;23.67;;
3698;SDS011;1865;50.918;7.092;2022-08-19T07:01:04;52.50;;;25.70;;
3698;SDS011;1865;50.918;7.092;2022-08-19T07:03:32;39.30;;;25.97;;
3698;SDS011;1865;50.918;7.092;2022-08-19T07:06:18;33.30;;;23.90;;
3698;SDS011;1865;50.918;7.092;2022-08-19T07:08:47;36.63;;;25.23;;
3698;SDS011;1865;50.918;7.092;2022-08-19T07:11:14;38.07;;;27.73;;
3698;SDS011;1865;50.918;7.092;2022-08-19T07:13:44;45.27;;;25.27;;
3698;SDS011;1865;50.918;7.092;2022-08-19T07:16:14;39.37;;;25.03;;
3698;SDS011;1865;50.918;7.092;2022-08-19T07:18:42;36.60;;;24.37;;
3698;SDS011;1865;50.918;7.092;2022-08-19T07:21:10;51.03;;;28.53;;
3698;SDS011;1865;50.918;7.092;2022-08-19T07:23:38;35.43;;;24.43;;
3698;SDS011;1865;50.918;7.092;2022-08-19T07:26:15;38.47;;;27.77;;
3698;SDS011;1865;50.918;7.092;2022-08-19T07:28:44;38.10;;;25.47;;
3698;SDS011;1865;50.918;7.092;2022-08-19T07:31:11;39.50;;;23.50;;
3698;SDS011;1865;50.918;7.092;2022-08-19T07:33:43;39.77;;;25.33;;
3698;SDS011;1865;50.918;7.092;2022-08-19T07:36:11;40.97;;;26.13;;
3698;SDS011;1865;50.918;7.092;2022-08-19T07:38:40;40.20;;;25.10;;
3698;SDS011;1865;50.918;7.092;2022-08-19T07:41:09;45.10;;;27.13;;
3698;SDS011;1865;50.918;7.092;2022-08-19T07:43:35;37.70;;;24.60;;
3698;SDS011;1865;50.918;7.092;2022-08-19T07:46:02;41.93;;;25.73;;
3698;SDS011;1865;50.918;7.092;2022-08-19T07:48:28;38.03;;;25.67;;
3698;SDS011;1865;50.918;7.092;2022-08-19T07:50:57;36.40;;;24.07;;
3698;SDS011;1865;50.918;7.092;2022-08-19T07:53:27;41.67;;;20.40;;
3698;SDS011;1865;50.918;7.092;2022-08-19T07:55:53;35.30;;;23.23;;
3698;SDS011;1865;50.918;7.092;2022-08-19T07:58:20;30.63;;;21.33;;
3698;SDS011;1865;50.918;7.092;2022-08-19T08:00:47;38.73;;;21.30;;
3698;SDS011;1865;50.918;7.092;2022-08-19T08:03:16;34.43;;;22.03;;
3698;SDS011;1865;50.918;7.092;2022-08-19T08:05:46;39.43;;;21.07;;
3698;SDS011;1865;50.918;7.092;2022-08-19T08:08:30;33.37;;;22.70;;
3698;SDS011;1865;50.918;7.092;2022-08-19T08:11:16;32.40;;;20.97;;
3698;SDS011;1865;50.918;7.092;2022-08-19T08:13:45;32.20;;;20.80;;
3698;SDS011;1865;50.918;7.092;2022-08-19T08:16:13;32.80;;;21.17;;
3698;SDS011;1865;50.918;7.092;2022-08-19T08:18:39;35.23;;;20.40;;
3698;SDS011;1865;50.918;7.092;2022-08-19T08:21:07;31.60;;;20.10;;
3698;SDS011;1865;50.918;7.092;2022-08-19T08:23:33;34.13;;;19.00;;
3698;SDS011;1865;50.918;7.092;2022-08-19T08:25:59;31.07;;;18.20;;
3698;SDS011;1865;50.918;7.092;2022-08-19T08:28:26;29.77;;;17.90;;
3698;SDS011;1865;50.918;7.092;2022-08-19T08:30:52;35.20;;;18.97;;
3698;SDS011;1865;50.918;7.092;2022-08-19T08:33:20;28.73;;;17.93;;
3698;SDS011;1865;50.918;7.092;2022-08-19T08:35:47;25.70;;;15.37;;
3698;SDS011;1865;50.918;7.092;2022-08-19T08:38:13;27.73;;;16.83;;
3698;SDS011;1865;50.918;7.092;2022-08-19T08:40:53;29.53;;;15.90;;
3698;SDS011;1865;50.918;7.092;2022-08-19T08:43:29;27.33;;;16.47;;
3698;SDS011;1865;50.918;7.092;2022-08-19T08:48:56;28.33;;;17.20;;
3698;SDS011;1865;50.918;7.092;2022-08-19T08:51:34;30.93;;;20.40;;
3698;SDS011;1865;50.918;7.092;2022-08-19T08:54:13;35.27;;;21.23;;
3698;SDS011;1865;50.918;7.092;2022-08-19T08:56:44;27.07;;;15.83;;
3698;SDS011;1865;50.918;7.092;2022-08-19T08:59:16;33.20;;;18.80;;
3698;SDS011;1865;50.918;7.092;2022-08-19T09:01:46;30.77;;;18.73;;
3698;SDS011;1865;50.918;7.092;2022-08-19T09:04:14;39.33;;;21.37;;
3698;SDS011;1865;50.918;7.092;2022-08-19T09:09:34;38.10;;;23.10;;
3698;SDS011;1865;50.918;7.092;2022-08-19T09:14:34;29.73;;;17.90;;
3698;SDS011;1865;50.918;7.092;2022-08-19T09:17:06;41.80;;;23.13;;
3698;SDS011;1865;50.918;7.092;2022-08-19T09:19:35;41.17;;;23.17;;
3698;SDS011;1865;50.918;7.092;2022-08-19T09:22:11;46.80;;;29.90;;
3698;SDS011;1865;50.918;7.092;2022-08-19T09:24:37;49.27;;;29.50;;
3698;SDS011;1865;50.918;7.092;2022-08-19T09:27:03;48.63;;;27.33;;
3698;SDS011;1865;50.918;7.092;2022-08-19T09:29:29;36.40;;;20.80;;
3698;SDS011;1865;50.918;7.092;2022-08-19T09:31:55;44.87;;;27.03;;
3698;SDS011;1865;50.918;7.092;2022-08-19T09:34:21;43.53;;;27.10;;
3698;SDS011;1865;50.918;7.092;2022-08-19T09:36:46;51.90;;;30.60;;
3698;SDS011;1865;50.918;7.092;2022-08-19T09:39:20;42.87;;;27.43;;
3698;SDS011;1865;50.918;7.092;2022-08-19T09:41:46;47.67;;;31.57;;
3698;SDS011;1865;50.918;7.092;2022-08-19T09:44:11;45.17;;;27.27;;
3698;SDS011;1865;50.918;7.092;2022-08-19T09:46:38;53.23;;;31.33;;
3698;SDS011;1865;50.918;7.092;2022-08-19T09:49:06;45.07;;;25.57;;
3698;SDS011;1865;50.918;7.092;2022-08-19T09:51:32;51.53;;;27.70;;
3698;SDS011;1865;50.918;7.092;2022-08-19T09:53:59;37.70;;;23.50;;
3698;SDS011;1865;50.918;7.092;2022-08-19T09:56:27;46.90;;;28.53;;
3698;SDS011;1865;50.918;7.092;2022-08-19T09:58:54;47.13;;;26.13;;
3698;SDS011;1865;50.918;7.092;2022-08-19T10:01:22;39.93;;;25.87;;
3698;SDS011;1865;50.918;7.092;2022-08-19T10:03:55;46.70;;;26.10;;
3698;SDS011;1865;50.918;7.092;2022-08-19T10:06:25;43.07;;;23.80;;
3698;SDS011;1865;50.918;7.092;2022-08-19T10:08:58;34.83;;;22.47;;
3698;SDS011;1865;50.918;7.092;2022-08-19T10:11:25;36.70;;;20.50;;
3698;SDS011;1865;50.918;7.092;2022-08-19T10:13:51;34.40;;;20.97;;
3698;SDS011;1865;50.918;7.092;2022-08-19T10:16:20;35.33;;;20.43;;
3698;SDS011;1865;50.918;7.092;2022-08-19T10:18:47;32.20;;;17.53;;
3698;SDS011;1865;50.918;7.092;2022-08-19T10:21:21;28.90;;;16.23;;
3698;SDS011;1865;50.918;7.092;2022-08-19T10:23:49;27.73;;;15.10;;
3698;SDS011;1865;50.918;7.092;2022-08-19T10:26:19;27.80;;;16.33;;
3698;SDS011;1865;50.918;7.092;2022-08-19T10:28:53;26.30;;;15.87;;
3698;SDS011;1865;50.918;7.092;2022-08-19T10:31:20;29.70;;;13.63;;
3698;SDS011;1865;50.918;7.092;2022-08-19T10:33:50;29.83;;;15.43;;
3698;SDS011;1865;50.918;7.092;2022-08-19T10:36:20;28.13;;;14.30;;
3698;SDS011;1865;50.918;7.092;2022-08-19T10:38:48;27.50;;;15.50;;
3698;SDS011;1865;50.918;7.092;2022-08-19T10:41:18;22.10;;;13.47;;
3698;SDS011;1865;50.918;7.092;2022-08-19T10:43:47;21.40;;;13.10;;
3698;SDS011;1865;50.918;7.092;2022-08-19T10:46:17;21.63;;;14.07;;
3698;SDS011;1865;50.918;7.092;2022-08-19T10:48:43;22.37;;;12.73;;
3698;SDS011;1865;50.918;7.092;2022-08-19T10:51:09;22.13;;;13.67;;
3698;SDS011;1865;50.918;7.092;2022-08-19T10:53:55;27.90;;;14.90;;
3698;SDS011;1865;50.918;7.092;2022-08-19T10:56:32;20.27;;;11.43;;
3698;SDS011;1865;50.918;7.092;2022-08-19T10:59:17;26.33;;;13.70;;
3698;SDS011;1865;50.918;7.092;2022-08-19T11:01:48;18.93;;;11.33;;
3698;SDS011;1865;50.918;7.092;2022-08-19T11:04:14;18.93;;;9.93;;
3698;SDS011;1865;50.918;7.092;2022-08-19T11:06:42;18.60;;;10.80;;
3698;SDS011;1865;50.918;7.092;2022-08-19T11:09:13;26.27;;;11.97;;
3698;SDS011;1865;50.918;7.092;2022-08-19T11:11:43;24.50;;;12.70;;
3698;SDS011;1865;50.918;7.092;2022-08-19T11:14:12;22.23;;;13.03;;
3698;SDS011;1865;50.918;7.092;2022-08-19T11:16:40;19.03;;;11.70;;
3698;SDS011;1865;50.918;7.092;2022-08-19T11:19:07;24.57;;;15.97;;
3698;SDS011;1865;50.918;7.092;2022-08-19T11:21:39;24.63;;;15.80;;
3698;SDS011;1865;50.918;7.092;2022-08-19T11:24:07;21.83;;;14.73;;
3698;SDS011;1865;50.918;7.092;2022-08-19T11:26:36;25.70;;;16.43;;
3698;SDS011;1865;50.918;7.092;2022-08-19T11:29:03;30.30;;;15.87;;
3698;SDS011;1865;50.918;7.092;2022-08-19T11:31:33;18.83;;;12.97;;
3698;SDS011;1865;50.918;7.092;2022-08-19T11:34:02;19.03;;;12.80;;
3698;SDS011;1865;50.918;7.092;2022-08-19T11:36:29;20.20;;;11.83;;
3698;SDS011;1865;50.918;7.092;2022-08-19T11:38:58;20.80;;;13.27;;
3698;SDS011;1865;50.918;7.092;2022-08-19T11:41:24;21.47;;;13.10;;
3698;SDS011;1865;50.918;7.092;2022-08-19T11:43:51;23.23;;;14.83;;
3698;SDS011;1865;50.918;7.092;2022-08-19T11:46:19;26.23;;;12.40;;
3698;SDS011;1865;50.918;7.092;2022-08-19T11:48:46;24.57;;;14.70;;
3698;SDS011;1865;50.918;7.092;2022-08-19T11:51:13;25.23;;;11.20;;
3698;SDS011;1865;50.918;7.092;2022-08-19T11:53:41;31.47;;;12.70;;
3698;SDS011;1865;50.918;7.092;2022-08-19T11:56:08;20.77;;;12.73;;
3698;SDS011;1865;50.918;7.092;2022-08-19T11:58:35;22.63;;;10.80;;
3698;SDS011;1865;50.918;7.092;2022-08-19T12:01:11;20.50;;;10.67;;
3698;SDS011;1865;50.918;7.092;2022-08-19T12:03:47;23.47;;;11.67;;
3698;SDS011;1865;50.918;7.092;2022-08-19T12:06:16;20.13;;;11.97;;
3698;SDS011;1865;50.918;7.092;2022-08-19T12:09:09;18.90;;;12.17;;
3698;SDS011;1865;50.918;7.092;2022-08-19T12:11:35;22.10;;;10.10;;
3698;SDS011;1865;50.918;7.092;2022-08-19T12:14:02;16.67;;;9.37;;
3698;SDS011;1865;50.918;7.092;2022-08-19T12:16:28;17.50;;;10.60;;
3698;SDS011;1865;50.918;7.092;2022-08-19T12:18:55;15.80;;;10.00;;
3698;SDS011;1865;50.918;7.092;2022-08-19T12:21:29;16.80;;;9.87;;
3698;SDS011;1865;50.918;7.092;2022-08-19T12:23:57;17.00;;;9.30;;
3698;SDS011;1865;50.918;7.092;2022-08-19T12:26:24;15.63;;;9.33;;
3698;SDS011;1865;50.918;7.092;2022-08-19T12:28:52;17.30;;;9.13;;
3698;SDS011;1865;50.918;7.092;2022-08-19T12:31:18;17.47;;;8.50;;
3698;SDS011;1865;50.918;7.092;2022-08-19T12:33:44;14.83;;;8.70;;
3698;SDS011;1865;50.918;7.092;2022-08-19T12:36:12;15.33;;;9.00;;
3698;SDS011;1865;50.918;7.092;2022-08-19T12:38:40;17.23;;;7.77;;
3698;SDS011;1865;50.918;7.092;2022-08-19T12:41:06;17.10;;;9.50;;
3698;SDS011;1865;50.918;7.092;2022-08-19T12:43:34;15.87;;;9.30;;
3698;SDS011;1865;50.918;7.092;2022-08-19T12:46:02;19.13;;;9.10;;
3698;SDS011;1865;50.918;7.092;2022-08-19T12:48:29;18.30;;;7.93;;
3698;SDS011;1865;50.918;7.092;2022-08-19T12:50:55;17.13;;;7.33;;
3698;SDS011;1865;50.918;7.092;2022-08-19T12:53:21;16.67;;;9.17;;
3698;SDS011;1865;50.918;7.092;2022-08-19T12:55:47;15.43;;;8.20;;
3698;SDS011;1865;50.918;7.092;2022-08-19T12:58:12;14.60;;;7.90;;
3698;SDS011;1865;50.918;7.092;2022-08-19T13:00:38;14.30;;;7.23;;
3698;SDS011;1865;50.918;7.092;2022-08-19T13:03:04;15.90;;;6.33;;
3698;SDS011;1865;50.918;7.092;2022-08-19T13:05:32;14.90;;;6.87;;
3698;SDS011;1865;50.918;7.092;2022-08-19T13:07:59;12.37;;;5.77;;
3698;SDS011;1865;50.918;7.092;2022-08-19T13:10:30;11.40;;;5.40;;
3698;SDS011;1865;50.918;7.092;2022-08-19T13:13:01;15.10;;;5.70;;
3698;SDS011;1865;50.918;7.092;2022-08-19T13:15:32;9.67;;;4.90;;
3698;SDS011;1865;50.918;7.092;2022-08-19T13:18:01;13.23;;;5.73;;
3698;SDS011;1865;50.918;7.092;2022-08-19T13:20:27;15.00;;;6.43;;
3698;SDS011;1865;50.918;7.092;2022-08-19T13:22:53;10.07;;;5.17;;
3698;SDS011;1865;50.918;7.092;2022-08-19T13:25:19;12.43;;;5.73;;
3698;SDS011;1865;50.918;7.092;2022-08-19T13:27:46;11.33;;;5.00;;
3698;SDS011;1865;50.918;7.092;2022-08-19T13:30:16;15.80;;;6.07;;
3698;SDS011;1865;50.918;7.092;2022-08-19T13:33:09;14.93;;;4.90;;
3698;SDS011;1865;50.918;7.092;2022-08-19T13:38:15;13.20;;;5.30;;
3698;SDS011;1865;50.918;7.092;2022-08-19T13:40:45;11.40;;;5.70;;
3698;SDS011;1865;50.918;7.092;2022-08-19T13:43:12;9.57;;;4.93;;
3698;SDS011;1865;50.918;7.092;2022-08-19T13:45:38;10.67;;;5.27;;
3698;SDS011;1865;50.918;7.092;2022-08-19T13:48:05;14.33;;;6.00;;
3698;SDS011;1865;50.918;7.092;2022-08-19T13:50:33;12.10;;;6.00;;
3698;SDS011;1865;50.918;7.092;2022-08-19T13:53:02;12.33;;;5.90;;
3698;SDS011;1865;50.918;7.092;2022-08-19T13:55:28;13.80;;;6.93;;
3698;SDS011;1865;50.918;7.092;2022-08-19T13:57:57;14.50;;;6.80;;
3698;SDS011;1865;50.918;7.092;2022-08-19T14:00:26;16.73;;;7.00;;
3698;SDS011;1865;50.918;7.092;2022-08-19T14:02:54;12.50;;;5.80;;
3698;SDS011;1865;50.918;7.092;2022-08-19T14:05:22;12.20;;;5.47;;
3698;SDS011;1865;50.918;7.092;2022-08-19T14:07:51;10.73;;;4.90;;
3698;SDS011;1865;50.918;7.092;2022-08-19T14:10:17;15.33;;;5.70;;
3698;SDS011;1865;50.918;7.092;2022-08-19T14:12:43;12.57;;;6.00;;
3698;SDS011;1865;50.918;7.092;2022-08-19T14:15:10;13.00;;;5.83;;
3698;SDS011;1865;50.918;7.092;2022-08-19T14:17:37;15.63;;;5.00;;
3698;SDS011;1865;50.918;7.092;2022-08-19T14:20:04;12.30;;;5.00;;
3698;SDS011;1865;50.918;7.092;2022-08-19T14:22:37;19.20;;;5.20;;
3698;SDS011;1865;50.918;7.092;2022-08-19T14:25:05;14.73;;;5.10;;
3698;SDS011;1865;50.918;7.092;2022-08-19T14:27:41;17.20;;;5.50;;
3698;SDS011;1865;50.918;7.092;2022-08-19T14:30:08;14.47;;;6.37;;
3698;SDS011;1865;50.918;7.092;2022-08-19T14:32:35;13.60;;;5.80;;
3698;SDS011;1865;50.918;7.092;2022-08-19T14:35:01;15.47;;;6.77;;
3698;SDS011;1865;50.918;7.092;2022-08-19T14:37:27;13.30;;;5.50;;
3698;SDS011;1865;50.918;7.092;2022-08-19T14:39:54;16.27;;;6.80;;
3698;SDS011;1865;50.918;7.092;2022-08-19T14:42:19;13.73;;;5.23;;
3698;SDS011;1865;50.918;7.092;2022-08-19T14:44:46;14.73;;;5.80;;
3698;SDS011;1865;50.918;7.092;2022-08-19T14:47:12;14.07;;;5.10;;
3698;SDS011;1865;50.918;7.092;2022-08-19T14:49:38;12.63;;;5.70;;
3698;SDS011;1865;50.918;7.092;2022-08-19T14:52:05;14.33;;;5.10;;
3698;SDS011;1865;50.918;7.092;2022-08-19T14:54:30;11.57;;;4.87;;
3698;SDS011;1865;50.918;7.092;2022-08-19T14:56:56;17.10;;;5.60;;
3698;SDS011;1865;50.918;7.092;2022-08-19T14:59:23;16.70;;;5.13;;
3698;SDS011;1865;50.918;7.092;2022-08-19T15:01:49;12.53;;;4.97;;
3698;SDS011;1865;50.918;7.092;2022-08-19T15:04:14;15.60;;;5.43;;
3698;SDS011;1865;50.918;7.092;2022-08-19T15:06:40;19.60;;;5.50;;
3698;SDS011;1865;50.918;7.092;2022-08-19T15:09:07;14.27;;;6.40;;
3698;SDS011;1865;50.918;7.092;2022-08-19T15:11:34;12.73;;;6.00;;
3698;SDS011;1865;50.918;7.092;2022-08-19T15:14:00;17.40;;;6.27;;